Time;durP1;ratioP1;P1;durP2;ratioP2;P2;SDS_P1;SDS_P2;PMS_P1;PMS_P2;Temp;Humidity;BMP_temperature;BMP_pressure;BME280_temperature;BME280_humidity;BME280_pressure;Samples;Min_cycle;Max_cycle;Signal;HPM_P1;HPM_P2
2022/12/28 00:01:53;;;;;;;5.17;4.67;;;;;;;4.22;100.00;97540.41;5003713;28;20240;-58
2022/12/28 00:04:21;;;;;;;5.23;4.83;;;;;;;4.15;100.00;97533.78;5002066;28;20201;-58
2022/12/28 00:06:49;;;;;;;5.63;5.13;;;;;;;4.10;100.00;97522.75;5001554;28;20663;-58
2022/12/28 00:09:15;;;;;;;6.87;5.10;;;;;;;4.04;100.00;97525.69;5001856;28;20231;-58
2022/12/28 00:11:42;;;;;;;7.93;5.50;;;;;;;4.00;100.00;97528.44;5002971;28;20205;-59
2022/12/28 00:14:08;;;;;;;7.43;5.30;;;;;;;3.95;100.00;97522.63;5002480;28;20220;-58
2022/12/28 00:16:36;;;;;;;5.97;5.47;;;;;;;3.93;100.00;97534.94;5003254;28;20208;-58
2022/12/28 00:19:05;;;;;;;7.57;6.10;;;;;;;3.98;100.00;97530.31;5003069;28;20205;-58
2022/12/28 00:21:33;;;;;;;7.13;5.90;;;;;;;3.98;100.00;97516.38;5003830;28;20216;-55
2022/12/28 00:24:00;;;;;;;6.80;6.20;;;;;;;3.96;100.00;97513.88;5002337;28;20206;-57
2022/12/28 00:26:28;;;;;;;6.63;6.03;;;;;;;3.94;100.00;97518.31;5003258;28;20215;-56
2022/12/28 00:28:55;;;;;;;6.70;6.07;;;;;;;3.93;100.00;97508.78;5002788;28;20243;-57
2022/12/28 00:31:21;;;;;;;8.07;6.10;;;;;;;4.04;100.00;97508.19;5003161;28;20649;-57
2022/12/28 00:33:48;;;;;;;6.80;6.10;;;;;;;4.13;100.00;97509.50;5009622;28;20215;-57
2022/12/28 00:36:15;;;;;;;7.47;6.20;;;;;;;4.11;100.00;97504.31;5018164;28;20212;-57
2022/12/28 00:38:44;;;;;;;7.37;6.03;;;;;;;4.09;100.00;97505.34;5020447;28;20188;-57
2022/12/28 00:41:11;;;;;;;6.93;6.23;;;;;;;4.11;100.00;97508.75;5015270;28;20212;-57
2022/12/28 00:43:37;;;;;;;7.53;6.07;;;;;;;4.13;100.00;97504.25;5010652;28;20239;-57
2022/12/28 00:46:04;;;;;;;6.40;5.80;;;;;;;4.05;100.00;97495.97;5008159;28;20201;-57
2022/12/28 00:48:31;;;;;;;6.27;5.77;;;;;;;4.05;100.00;97495.97;5008563;28;20204;-57
2022/12/28 00:51:01;;;;;;;6.20;5.70;;;;;;;4.11;100.00;97500.88;5002634;28;20288;-57
2022/12/28 00:53:28;;;;;;;6.03;5.53;;;;;;;4.07;100.00;97494.97;4993884;28;20209;-57
2022/12/28 00:55:56;;;;;;;6.77;6.03;;;;;;;4.09;100.00;97497.50;4993512;28;20221;-57
2022/12/28 00:58:22;;;;;;;5.60;5.10;;;;;;;4.11;100.00;97504.31;4993341;28;20213;-57
2022/12/28 01:00:49;;;;;;;8.03;5.63;;;;;;;4.13;100.00;97488.56;4996780;28;20236;-57
2022/12/28 01:03:15;;;;;;;5.90;5.40;;;;;;;4.14;100.00;97490.25;5002960;28;20209;-58
2022/12/28 01:05:42;;;;;;;5.83;5.30;;;;;;;4.11;100.00;97495.66;5005308;28;20204;-57
2022/12/28 01:08:08;;;;;;;6.70;5.17;;;;;;;4.14;100.00;97492.88;5004841;28;20204;-57
2022/12/28 01:10:35;;;;;;;5.80;5.20;;;;;;;4.14;100.00;97492.88;5002969;28;20229;-57
2022/12/28 01:13:02;;;;;;;4.70;4.27;;;;;;;4.23;100.00;97484.50;4992767;28;20232;-58
2022/12/28 01:15:29;;;;;;;4.27;3.87;;;;;;;4.28;100.00;97491.19;4992908;28;20225;-57
2022/12/28 01:17:55;;;;;;;3.93;3.63;;;;;;;4.39;100.00;97480.13;4995786;28;20193;-57
2022/12/28 01:20:22;;;;;;;3.57;3.27;;;;;;;4.44;100.00;97480.69;4999000;28;20212;-57
2022/12/28 01:22:50;;;;;;;2.90;2.60;;;;;;;4.56;100.00;97482.66;4992769;28;20541;-57
2022/12/28 01:25:17;;;;;;;3.23;2.93;;;;;;;4.73;100.00;97487.78;4993115;28;20228;-58
2022/12/28 01:27:43;;;;;;;3.13;2.80;;;;;;;4.82;100.00;97482.00;4992780;28;20209;-57
2022/12/28 01:30:13;;;;;;;3.13;2.83;;;;;;;4.94;100.00;97488.31;4992415;28;20672;-58
2022/12/28 01:32:40;;;;;;;3.07;2.87;;;;;;;5.03;100.00;97483.41;4992234;28;20212;-58
2022/12/28 01:35:07;;;;;;;3.20;3.00;;;;;;;5.09;100.00;97478.75;4991925;28;20205;-58
2022/12/28 01:37:34;;;;;;;2.87;2.67;;;;;;;5.20;100.00;97473.72;4992642;28;20224;-58
2022/12/28 01:40:00;;;;;;;2.63;2.43;;;;;;;5.29;100.00;97487.13;4991771;28;20208;-58
2022/12/28 01:42:27;;;;;;;2.70;2.50;;;;;;;5.43;100.00;97481.91;4992300;28;20208;-57
2022/12/28 01:44:53;;;;;;;2.97;2.70;;;;;;;5.54;100.00;97483.91;4992061;28;20237;-57
2022/12/28 01:47:24;;;;;;;2.70;2.50;;;;;;;5.63;100.00;97475.50;4992275;28;20201;-58
2022/12/28 01:49:55;;;;;;;3.70;2.40;;;;;;;5.76;100.00;97483.44;4994831;28;20217;-57
2022/12/28 01:52:27;;;;;;;2.37;2.17;;;;;;;5.84;100.00;97474.19;4995198;28;20209;-58
2022/12/28 01:54:57;;;;;;;2.47;2.27;;;;;;;5.90;100.00;97468.59;4993817;28;20208;-58
2022/12/28 01:57:26;;;;;;;2.00;1.80;;;;;;;5.98;100.00;97471.59;4994678;28;20197;-58
2022/12/28 01:59:56;;;;;;;4.07;2.33;;;;;;;6.05;100.00;97463.31;4994661;28;20224;-58
2022/12/28 02:02:24;;;;;;;2.73;2.00;;;;;;;6.14;100.00;97452.22;4994645;28;20209;-58
2022/12/28 02:04:51;;;;;;;2.73;1.73;;;;;;;6.17;100.00;97446.78;4994270;28;20244;-57
2022/12/28 02:07:22;;;;;;;2.60;2.00;;;;;;;6.18;100.00;97440.59;4992070;28;20210;-58
2022/12/28 02:09:48;;;;;;;2.17;1.90;;;;;;;6.21;100.00;97441.25;4990602;28;20205;-57
2022/12/28 02:12:15;;;;;;;2.43;2.00;;;;;;;6.25;100.00;97444.53;4991873;28;20212;-58
2022/12/28 02:14:43;;;;;;;2.03;1.83;;;;;;;6.25;100.00;97440.13;4991082;28;20201;-57
2022/12/28 02:17:10;;;;;;;1.90;1.80;;;;;;;6.26;100.00;97436.56;4991591;28;20205;-57
2022/12/28 02:19:45;;;;;;;2.00;1.90;;;;;;;6.24;100.00;97441.06;4991692;28;20209;-57
2022/12/28 02:22:31;;;;;;;4.07;2.03;;;;;;;6.28;100.00;97444.31;4991518;28;20192;-58
2022/12/28 02:25:12;;;;;;;3.33;2.00;;;;;;;6.21;100.00;97446.50;4991308;28;20220;-58
2022/12/28 02:27:47;;;;;;;2.13;1.93;;;;;;;6.18;100.00;97437.97;4991266;28;20206;-58
2022/12/28 02:30:15;;;;;;;2.30;2.00;;;;;;;6.03;100.00;97441.56;4991120;28;20219;-58
2022/12/28 02:32:51;;;;;;;2.70;2.00;;;;;;;5.93;100.00;97442.13;4991412;28;20514;-57
2022/12/28 02:35:24;;;;;;;2.80;1.70;;;;;;;5.93;100.00;97442.13;4991192;28;20204;-57
2022/12/28 02:37:54;;;;;;;2.30;2.07;;;;;;;5.91;100.00;97436.16;4990957;28;20201;-58
2022/12/28 02:40:23;;;;;;;2.00;1.90;;;;;;;5.89;100.00;97432.75;4991261;28;20205;-58
2022/12/28 02:42:51;;;;;;;2.33;1.90;;;;;;;5.78;100.00;97424.66;4991540;28;20205;-57
2022/12/28 02:51:14;;;;;;;4.07;2.20;;;;;;;5.50;100.00;97419.44;5001228;28;20667;-58
2022/12/28 02:54:03;;;;;;;2.27;1.90;;;;;;;5.33;100.00;97425.69;5000404;28;20207;-57
2022/12/28 02:56:33;;;;;;;2.93;2.17;;;;;;;5.26;100.00;97413.03;5000932;28;20201;-57
2022/12/28 02:59:27;;;;;;;2.23;2.00;;;;;;;5.19;100.00;97424.81;5001369;28;20292;-57
2022/12/28 03:02:24;;;;;;;2.40;2.20;;;;;;;5.09;100.00;97421.06;5000937;28;20201;-57
2022/12/28 03:05:04;;;;;;;2.33;1.60;;;;;;;4.92;100.00;97424.69;4995716;28;20202;-57
2022/12/28 03:10:25;;;;;;;2.13;2.03;;;;;;;4.84;100.00;97419.88;5000513;28;20544;-57
2022/12/28 03:12:57;;;;;;;2.63;2.43;;;;;;;4.83;100.00;97420.81;5001003;28;20227;-58
2022/12/28 03:15:29;;;;;;;2.27;2.10;;;;;;;4.77;100.00;97413.31;5005068;28;20629;-57
2022/12/28 03:31:48;;;;;;;2.80;2.50;;;;;;;4.40;100.00;97401.47;5004572;28;20291;-57
2022/12/28 03:34:16;;;;;;;2.93;2.73;;;;;;;4.34;100.00;97398.34;5003986;28;20668;-57
2022/12/28 03:36:48;;;;;;;2.53;2.37;;;;;;;4.32;100.00;97402.84;5004408;28;20201;-58
2022/12/28 03:39:21;;;;;;;2.80;2.60;;;;;;;4.29;100.00;97405.59;5004095;28;20573;-58
2022/12/28 03:44:34;;;;;;;2.60;2.40;;;;;;;4.19;100.00;97396.59;4941532;28;20232;-56
2022/12/28 03:47:07;;;;;;;3.43;2.40;;;;;;;4.14;100.00;97391.63;5003919;28;20641;-57
2022/12/28 03:49:35;;;;;;;2.87;2.63;;;;;;;4.08;100.00;97385.88;5003967;28;20241;-58
2022/12/28 03:52:02;;;;;;;2.30;2.20;;;;;;;4.06;100.00;97379.88;5003661;28;20209;-58
2022/12/28 03:54:29;;;;;;;2.50;2.30;;;;;;;4.05;100.00;97386.03;5003320;28;20209;-58
2022/12/28 03:56:55;;;;;;;2.30;2.20;;;;;;;4.04;100.00;97376.53;5003683;28;20647;-57
2022/12/28 03:59:22;;;;;;;2.80;2.10;;;;;;;4.01;100.00;97373.13;5004308;28;20205;-57
2022/12/28 04:01:48;;;;;;;2.00;1.90;;;;;;;4.03;100.00;97364.34;5004028;28;20200;-58
2022/12/28 04:04:15;;;;;;;2.63;2.13;;;;;;;3.96;100.00;97367.31;5003745;28;20216;-57
2022/12/28 04:06:43;;;;;;;2.73;2.07;;;;;;;3.98;100.00;97367.22;5004474;28;20205;-58
2022/12/28 04:09:10;;;;;;;2.87;2.30;;;;;;;3.95;100.00;97365.63;5003056;28;20218;-57
2022/12/28 04:11:36;;;;;;;2.17;2.07;;;;;;;3.96;100.00;97362.09;5003754;28;20239;-58
2022/12/28 04:14:03;;;;;;;2.00;1.90;;;;;;;4.14;100.00;97348.91;5002971;28;20208;-57
2022/12/28 04:16:30;;;;;;;1.80;1.70;;;;;;;4.23;100.00;97353.59;5003997;28;20558;-58
2022/12/28 04:18:56;;;;;;;2.50;2.20;;;;;;;4.35;100.00;97348.53;5003576;28;20201;-57
2022/12/28 04:21:23;;;;;;;2.37;2.17;;;;;;;4.53;100.00;97340.53;5003635;28;20283;-57
2022/12/28 04:23:52;;;;;;;2.00;1.90;;;;;;;4.62;100.00;97335.59;5002904;28;20668;-58
2022/12/28 04:26:19;;;;;;;3.27;2.10;;;;;;;4.70;100.00;97340.41;5004263;28;20202;-58
2022/12/28 04:28:45;;;;;;;2.10;2.00;;;;;;;4.68;100.00;97329.16;5004272;28;20205;-57
2022/12/28 04:31:13;;;;;;;2.00;1.90;;;;;;;4.59;100.00;97333.16;5006850;28;20787;-58
2022/12/28 04:33:40;;;;;;;4.90;2.30;;;;;;;4.69;100.00;97330.84;5006277;28;20204;-57
2022/12/28 04:36:07;;;;;;;1.90;1.80;;;;;;;4.74;100.00;97329.66;5003503;28;20212;-58
2022/12/28 04:38:34;;;;;;;2.13;1.93;;;;;;;4.73;100.00;97322.72;5002128;28;20205;-57
2022/12/28 04:41:03;;;;;;;1.90;1.80;;;;;;;4.80;100.00;97331.06;5001546;28;20209;-58
2022/12/28 04:43:30;;;;;;;2.17;2.00;;;;;;;4.85;100.00;97321.97;4999836;28;20260;-58
2022/12/28 04:45:57;;;;;;;2.70;2.10;;;;;;;4.81;100.00;97325.75;4993265;28;20205;-58
2022/12/28 04:48:23;;;;;;;2.00;1.90;;;;;;;4.78;100.00;97325.88;4992828;28;20292;-57
2022/12/28 04:50:50;;;;;;;2.10;1.97;;;;;;;4.81;100.00;97325.75;4993332;28;20241;-57
2022/12/28 04:53:16;;;;;;;2.03;1.70;;;;;;;4.84;100.00;97320.31;4993383;28;20305;-58
2022/12/28 04:55:43;;;;;;;2.03;1.93;;;;;;;4.92;100.00;97307.56;4992591;28;20201;-57
2022/12/28 04:58:11;;;;;;;2.10;1.97;;;;;;;4.97;100.00;97310.78;4992753;28;20209;-57
2022/12/28 05:00:37;;;;;;;2.30;1.80;;;;;;;5.03;100.00;97310.38;4992612;28;20209;-57
2022/12/28 05:03:04;;;;;;;2.70;1.90;;;;;;;5.00;100.00;97310.56;4992633;28;20217;-58
2022/12/28 05:05:31;;;;;;;2.03;1.87;;;;;;;5.01;100.00;97306.19;4992919;28;20213;-57
2022/12/28 05:08:00;;;;;;;2.23;1.90;;;;;;;4.90;100.00;97303.38;4991967;28;20236;-58
2022/12/28 05:10:27;;;;;;;1.90;1.80;;;;;;;4.90;100.00;97301.59;4992337;28;20221;-56
2022/12/28 05:12:54;;;;;;;2.00;1.70;;;;;;;4.86;100.00;97310.56;4992664;28;20205;-58
2022/12/28 05:15:22;;;;;;;4.20;1.50;;;;;;;4.89;100.00;97313.00;4992580;28;20223;-57
2022/12/28 05:17:48;;;;;;;1.73;1.63;;;;;;;4.90;100.00;97304.22;4992277;28;20549;-57
2022/12/28 05:20:16;;;;;;;1.90;1.80;;;;;;;4.90;100.00;97309.44;4992877;28;20205;-57
2022/12/28 05:22:43;;;;;;;2.70;1.60;;;;;;;4.92;100.00;97310.19;4992159;28;20229;-57
2022/12/28 05:25:09;;;;;;;1.73;1.63;;;;;;;4.90;100.00;97306.81;4992050;28;20573;-57
2022/12/28 05:27:36;;;;;;;1.90;1.77;;;;;;;4.89;100.00;97307.75;4992734;28;20205;-58
2022/12/28 05:30:02;;;;;;;2.00;1.80;;;;;;;4.84;100.00;97304.59;4992660;28;20273;-57
2022/12/28 05:32:30;;;;;;;1.50;1.40;;;;;;;4.84;100.00;97295.88;4992611;28;20220;-57
2022/12/28 05:34:57;;;;;;;2.43;1.70;;;;;;;4.80;100.00;97300.47;4992224;28;20205;-57
2022/12/28 05:37:23;;;;;;;3.00;1.73;;;;;;;4.80;100.00;97297.00;4991840;28;20232;-58
2022/12/28 05:39:50;;;;;;;1.60;1.50;;;;;;;4.76;100.00;97312.06;4992166;28;20201;-58
2022/12/28 05:42:16;;;;;;;1.80;1.70;;;;;;;4.71;100.00;97311.47;4991967;28;20205;-58
2022/12/28 05:44:43;;;;;;;1.87;1.70;;;;;;;4.71;100.00;97315.88;4999585;28;20684;-58
2022/12/28 05:47:09;;;;;;;1.93;1.77;;;;;;;4.60;100.00;97319.16;5003820;28;20209;-59
2022/12/28 05:49:37;;;;;;;6.60;1.80;;;;;;;4.56;100.00;97319.41;5009237;28;20204;-57
2022/12/28 05:52:04;;;;;;;1.97;1.73;;;;;;;4.49;100.00;97316.31;5012568;28;20240;-57
2022/12/28 05:54:30;;;;;;;1.60;1.50;;;;;;;4.53;100.00;97324.81;5011912;28;20201;-58
2022/12/28 05:56:57;;;;;;;1.57;1.40;;;;;;;4.50;100.00;97318.81;5002016;28;20235;-57
2022/12/28 05:59:23;;;;;;;2.03;1.70;;;;;;;4.49;100.00;97324.16;5001993;28;20635;-57
2022/12/28 06:01:50;;;;;;;1.97;1.60;;;;;;;4.49;100.00;97325.00;5002578;28;20201;-57
2022/12/28 06:04:18;;;;;;;1.93;1.60;;;;;;;4.50;100.00;97325.81;5002151;28;20220;-58
2022/12/28 06:06:47;;;;;;;1.90;1.70;;;;;;;4.52;100.00;97334.47;5001076;28;20228;-60
2022/12/28 06:09:13;;;;;;;1.50;1.40;;;;;;;4.55;100.00;97330.81;5004245;28;20208;-58
2022/12/28 06:11:40;;;;;;;2.50;1.73;;;;;;;4.55;100.00;97333.44;5002721;28;20271;-58
2022/12/28 06:14:06;;;;;;;1.83;1.50;;;;;;;4.53;100.00;97329.13;5001991;28;20292;-57
2022/12/28 06:16:34;;;;;;;1.67;1.57;;;;;;;4.49;100.00;97334.63;5002757;28;20256;-57
2022/12/28 06:19:04;;;;;;;1.77;1.67;;;;;;;4.51;100.00;97332.75;5002328;28;20206;-58
2022/12/28 06:21:32;;;;;;;2.57;1.60;;;;;;;4.46;100.00;97327.78;5002469;28;20204;-58
2022/12/28 06:24:01;;;;;;;1.57;1.47;;;;;;;4.42;100.00;97322.84;5002113;28;20197;-57
2022/12/28 06:26:29;;;;;;;1.73;1.43;;;;;;;4.46;100.00;97329.59;5002448;28;20205;-57
2022/12/28 06:28:55;;;;;;;1.47;1.33;;;;;;;4.40;100.00;97322.06;5001365;28;20200;-57
2022/12/28 06:31:23;;;;;;;1.53;1.43;;;;;;;4.38;100.00;97314.31;5002099;28;20232;-58
2022/12/28 06:33:52;;;;;;;1.70;1.60;;;;;;;4.40;100.00;97298.50;5002060;28;20211;-57
2022/12/28 06:36:21;;;;;;;2.30;2.20;;;;;;;4.47;100.00;97297.19;5007024;28;20197;-57
2022/12/28 06:38:48;;;;;;;2.30;2.20;;;;;;;4.49;100.00;97295.34;5007735;28;20204;-57
2022/12/28 06:41:17;;;;;;;2.20;2.10;;;;;;;4.40;100.00;97303.72;5019770;28;20204;-58
2022/12/28 06:43:45;;;;;;;1.67;1.57;;;;;;;4.46;100.00;97298.16;5011619;28;20236;-57
2022/12/28 06:46:12;;;;;;;2.27;1.90;;;;;;;4.44;100.00;97305.25;5004720;28;20205;-58
2022/12/28 06:48:39;;;;;;;2.23;1.33;;;;;;;4.46;100.00;97300.78;4995283;28;20329;-58
2022/12/28 06:51:07;;;;;;;1.57;1.47;;;;;;;4.50;100.00;97295.25;4991708;28;20225;-59
2022/12/28 06:53:35;;;;;;;1.60;1.43;;;;;;;4.48;100.00;97296.28;4991612;28;20220;-58
2022/12/28 06:56:03;;;;;;;1.47;1.43;;;;;;;4.49;100.00;97295.34;4991213;28;20235;-58
2022/12/28 06:58:32;;;;;;;2.60;1.50;;;;;;;4.48;100.00;97298.91;4991906;28;21038;-58
2022/12/28 07:01:05;;;;;;;1.60;1.50;;;;;;;4.51;100.00;97299.56;4992879;28;20541;-56
2022/12/28 07:03:32;;;;;;;1.43;1.33;;;;;;;4.52;100.00;97303.03;4995921;28;20540;-57
2022/12/28 07:06:00;;;;;;;2.47;1.57;;;;;;;4.59;100.00;97296.50;4996107;28;20213;-57
2022/12/28 07:08:26;;;;;;;2.67;1.77;;;;;;;4.67;100.00;97299.50;5007959;28;20224;-58
2022/12/28 07:10:53;;;;;;;1.80;1.70;;;;;;;4.66;100.00;97295.19;5009358;28;20232;-57
2022/12/28 07:13:19;;;;;;;1.80;1.70;;;;;;;4.65;100.00;97292.66;5008037;28;20208;-57
2022/12/28 07:15:47;;;;;;;2.50;1.70;;;;;;;4.66;100.00;97295.19;5010925;28;20216;-58
2022/12/28 07:18:14;;;;;;;2.13;1.80;;;;;;;4.69;100.00;97286.31;4998815;28;20216;-57
2022/12/28 07:20:40;;;;;;;1.93;1.77;;;;;;;4.73;100.00;97283.41;4995163;28;20208;-56
2022/12/28 07:23:06;;;;;;;1.83;1.73;;;;;;;4.72;100.00;97279.09;4995436;28;20201;-57
2022/12/28 07:25:33;;;;;;;1.87;1.63;;;;;;;4.76;100.00;97275.38;4994509;28;20537;-57
2022/12/28 07:27:59;;;;;;;2.67;1.87;;;;;;;4.76;100.00;97275.38;4994931;28;20213;-57
2022/12/28 07:30:26;;;;;;;1.83;1.60;;;;;;;4.79;100.00;97277.81;4994827;28;20236;-57
2022/12/28 07:32:54;;;;;;;1.70;1.60;;;;;;;4.82;100.00;97282.00;4994924;28;20216;-56
2022/12/28 07:35:21;;;;;;;3.60;1.67;;;;;;;4.81;100.00;97278.56;4994887;28;20622;-56
2022/12/28 07:37:48;;;;;;;1.90;1.77;;;;;;;4.81;100.00;97282.97;4995207;28;20209;-57
2022/12/28 07:40:15;;;;;;;2.87;1.73;;;;;;;4.74;100.00;97277.25;4994902;28;20517;-56
2022/12/28 07:42:41;;;;;;;2.63;1.90;;;;;;;4.76;100.00;97279.75;4995203;28;20238;-58
2022/12/28 07:45:11;;;;;;;2.27;2.07;;;;;;;4.76;100.00;97270.13;5004804;28;20896;-57
2022/12/28 07:47:38;;;;;;;2.53;2.33;;;;;;;4.80;100.00;97271.63;5006777;28;20244;-57
2022/12/28 07:50:06;;;;;;;2.57;2.33;;;;;;;4.84;100.00;97256.56;5007887;28;20205;-56
2022/12/28 07:52:35;;;;;;;2.60;2.40;;;;;;;4.84;100.00;97260.03;5007870;28;20690;-57
2022/12/28 07:55:04;;;;;;;4.00;2.20;;;;;;;4.90;100.00;97257.03;5010784;28;20208;-57
2022/12/28 07:57:30;;;;;;;5.60;2.30;;;;;;;4.94;100.00;97258.53;5011911;28;20201;-57
2022/12/28 07:59:57;;;;;;;4.43;2.63;;;;;;;4.94;100.00;97263.78;5011692;28;20653;-58
2022/12/28 08:02:23;;;;;;;3.07;2.40;;;;;;;4.97;100.00;97268.84;5009852;28;20223;-57
2022/12/28 08:04:50;;;;;;;4.17;2.33;;;;;;;5.07;100.00;97263.00;5010873;28;20209;-57
2022/12/28 08:07:18;;;;;;;2.77;2.53;;;;;;;5.14;100.00;97264.31;5005353;28;20197;-56
2022/12/28 08:09:44;;;;;;;2.90;2.20;;;;;;;5.18;100.00;97255.34;5002863;28;20213;-57
2022/12/28 08:12:11;;;;;;;2.10;2.00;;;;;;;5.25;100.00;97256.63;5002332;28;20564;-58
2022/12/28 08:14:37;;;;;;;2.03;1.93;;;;;;;5.28;100.00;97253.84;5004119;28;20542;-57
2022/12/28 08:17:04;;;;;;;2.23;2.03;;;;;;;5.37;100.00;97255.88;5004026;28;20641;-58
2022/12/28 08:19:30;;;;;;;2.37;2.00;;;;;;;5.43;100.00;97260.72;5003776;28;20206;-56
2022/12/28 08:21:57;;;;;;;2.10;1.90;;;;;;;5.49;100.00;97255.13;5003656;28;20205;-57
2022/12/28 08:24:24;;;;;;;2.97;2.20;;;;;;;5.57;100.00;97255.47;5003353;28;20220;-57
2022/12/28 08:26:51;;;;;;;1.67;1.57;;;;;;;5.72;100.00;97251.88;5004212;28;20216;-59
2022/12/28 08:29:20;;;;;;;1.40;1.30;;;;;;;5.86;100.00;97243.13;5003744;28;20204;-58
2022/12/28 08:31:46;;;;;;;0.90;0.90;;;;;;;5.96;100.00;97239.81;5004072;28;20239;-59
2022/12/28 08:34:16;;;;;;;2.27;1.93;;;;;;;5.98;100.00;97237.94;5004263;28;20208;-57
2022/12/28 08:36:43;;;;;;;1.80;1.70;;;;;;;6.06;100.00;97231.34;5004022;28;20276;-56
2022/12/28 08:39:09;;;;;;;1.87;1.77;;;;;;;6.11;100.00;97237.97;5003994;28;20226;-58
2022/12/28 08:41:38;;;;;;;2.63;1.63;;;;;;;6.16;100.00;97225.38;5003187;28;20193;-57
2022/12/28 08:44:05;;;;;;;1.93;1.40;;;;;;;6.24;100.00;97233.56;4998566;28;20585;-57
2022/12/28 08:46:34;;;;;;;1.57;0.90;;;;;;;6.37;100.00;97233.59;4993082;28;20634;-57
2022/12/28 08:49:01;;;;;;;1.23;1.13;;;;;;;6.45;100.00;97232.13;4996675;28;20220;-57
2022/12/28 08:51:30;;;;;;;1.70;1.43;;;;;;;6.46;100.00;97233.81;4994331;28;20233;-58
2022/12/28 08:53:57;;;;;;;2.40;1.87;;;;;;;6.45;100.00;97236.53;4994271;28;20208;-58
2022/12/28 08:56:26;;;;;;;2.07;1.93;;;;;;;6.51;100.00;97244.03;4995169;28;20276;-58
2022/12/28 08:58:55;;;;;;;2.60;1.63;;;;;;;6.60;100.00;97246.03;4993969;28;20205;-58
2022/12/28 09:01:23;;;;;;;2.20;2.00;;;;;;;6.66;100.00;97245.59;4995065;28;20209;-57
2022/12/28 09:03:52;;;;;;;5.70;4.13;;;;;;;6.77;100.00;97243.09;4994064;28;20213;-58
2022/12/28 09:06:22;;;;;;;4.87;4.33;;;;;;;6.86;99.06;97247.72;4992926;28;20219;-59
2022/12/28 09:08:49;;;;;;;4.13;3.73;;;;;;;7.09;100.00;97248.75;4993834;28;20664;-58
2022/12/28 09:11:15;;;;;;;5.27;3.50;;;;;;;7.17;100.00;97242.94;4996310;28;20224;-58
2022/12/28 09:13:42;;;;;;;4.80;3.47;;;;;;;7.23;98.26;97235.47;4993281;28;20212;-59
2022/12/28 09:16:12;;;;;;;2.27;2.13;;;;;;;7.44;97.16;97239.22;4992884;28;20201;-60
2022/12/28 09:18:39;;;;;;;2.00;1.90;;;;;;;7.49;94.61;97237.09;4994051;28;20197;-58
2022/12/28 09:21:07;;;;;;;2.03;1.77;;;;;;;7.52;94.69;97233.41;4993282;28;20220;-59
2022/12/28 09:23:33;;;;;;;1.57;1.47;;;;;;;7.61;96.73;97239.81;5003726;28;20304;-58
2022/12/28 09:26:04;;;;;;;1.93;1.63;;;;;;;7.69;95.57;97238.28;4994088;28;20205;-57
2022/12/28 09:28:30;;;;;;;1.97;1.70;;;;;;;7.88;94.30;97238.66;4996261;28;20201;-62
2022/12/28 09:30:57;;;;;;;1.97;1.47;;;;;;;8.07;92.89;97226.75;5004488;28;20269;-60
2022/12/28 09:36:10;;;;;;;2.00;1.10;;;;;;;8.38;91.51;97221.75;5010967;28;20248;-59
2022/12/28 09:38:36;;;;;;;2.73;2.00;;;;;;;8.85;88.86;97212.88;4993497;28;20209;-58
2022/12/28 09:41:11;;;;;;;1.57;1.43;;;;;;;9.51;83.37;97205.88;4992030;28;20205;-59
2022/12/28 09:43:40;;;;;;;1.30;1.20;;;;;;;9.94;82.55;97205.88;4991783;28;20259;-59
2022/12/28 09:46:07;;;;;;;1.97;1.00;;;;;;;10.02;78.39;97201.63;4991739;28;21353;-59
2022/12/28 09:48:36;;;;;;;1.10;1.00;;;;;;;10.43;77.16;97195.59;4993069;28;20209;-60
2022/12/28 09:51:03;;;;;;;3.10;0.93;;;;;;;10.77;74.10;97196.22;4992029;28;20205;-59
2022/12/28 09:53:32;;;;;;;0.60;0.60;;;;;;;10.83;73.61;97195.72;4992102;28;20201;-59
2022/12/28 09:56:01;;;;;;;2.60;0.97;;;;;;;10.68;75.74;97191.72;4991252;28;20639;-59
2022/12/28 09:58:28;;;;;;;0.80;0.80;;;;;;;10.40;74.11;97187.94;4992147;28;20212;-59
2022/12/28 10:00:56;;;;;;;1.00;0.90;;;;;;;10.62;71.52;97188.78;4992783;28;20213;-59
2022/12/28 10:03:25;;;;;;;2.67;1.00;;;;;;;10.69;72.97;97182.00;4996431;28;20251;-59
2022/12/28 10:05:55;;;;;;;0.70;0.70;;;;;;;10.79;73.30;97175.78;5000162;28;20205;-59
2022/12/28 10:08:22;;;;;;;0.97;0.97;;;;;;;10.93;70.49;97167.50;4995994;28;20212;-59
2022/12/28 10:10:51;;;;;;;1.13;0.80;;;;;;;11.52;69.32;97164.06;4993909;28;20223;-59
2022/12/28 10:13:19;;;;;;;0.63;0.63;;;;;;;11.80;70.81;97165.94;4991522;28;20229;-59
2022/12/28 10:15:46;;;;;;;1.10;0.90;;;;;;;12.41;67.89;97160.38;4991643;28;20201;-58
2022/12/28 10:18:13;;;;;;;0.93;0.90;;;;;;;12.82;67.04;97149.38;4991022;28;20201;-59
2022/12/28 10:20:41;;;;;;;1.53;0.90;;;;;;;13.28;65.31;97153.03;4991980;28;20213;-59
2022/12/28 10:23:12;;;;;;;1.67;0.98;;;;;;;13.93;61.63;97147.44;4991619;28;20297;-59
2022/12/28 10:25:39;;;;;;;1.95;0.80;;;;;;;13.85;62.99;97149.19;4991449;28;20237;-60
2022/12/28 10:28:07;;;;;;;1.27;0.90;;;;;;;14.50;54.50;97139.97;4991228;28;20641;-59
2022/12/28 10:30:44;;;;;;;0.75;0.75;;;;;;;14.28;56.65;97138.59;4991695;28;20209;-59
2022/12/28 10:33:16;;;;;;;1.67;0.57;;;;;;;14.36;53.56;97125.41;4991377;28;20220;-59
2022/12/28 10:35:49;;;;;;;0.60;0.57;;;;;;;14.11;56.05;97134.13;4991145;28;21285;-59
2022/12/28 10:38:24;;;;;;;0.70;0.70;;;;;;;14.02;54.49;97123.59;4991746;28;20676;-59
2022/12/28 10:40:58;;;;;;;0.98;0.60;;;;;;;13.85;55.10;97112.78;4991813;28;20529;-59
2022/12/28 10:43:28;;;;;;;0.88;0.88;;;;;;;13.97;55.29;97110.72;4994510;28;20229;-58
2022/12/28 10:45:55;;;;;;;0.60;0.52;;;;;;;13.55;54.63;97107.00;5001543;28;20228;-59
2022/12/28 10:48:25;;;;;;;1.00;0.80;;;;;;;13.53;56.42;97101.00;5001478;28;20200;-59
2022/12/28 10:50:53;;;;;;;0.77;0.50;;;;;;;13.61;55.16;97093.94;5000573;28;20232;-59
2022/12/28 10:53:26;;;;;;;0.65;0.50;;;;;;;13.61;54.16;97098.41;5001501;28;20240;-58
2022/12/28 10:56:06;;;;;;;0.57;0.57;;;;;;;13.42;54.86;97089.63;5009234;28;20273;-58
2022/12/28 10:58:33;;;;;;;0.50;0.47;;;;;;;13.15;55.92;97089.63;5017685;28;20189;-59
2022/12/28 11:01:01;;;;;;;3.33;0.90;;;;;;;12.92;55.56;97080.34;5018364;28;20207;-59
2022/12/28 11:03:29;;;;;;;0.90;0.50;;;;;;;12.34;58.59;97080.53;5000728;28;20260;-58
2022/12/28 11:06:14;;;;;;;1.65;0.60;;;;;;;12.22;60.60;97081.66;5000904;28;20530;-60
2022/12/28 11:08:43;;;;;;;1.27;0.53;;;;;;;11.94;60.17;97078.09;5000813;28;20201;-60
2022/12/28 11:11:18;;;;;;;0.80;0.80;;;;;;;11.55;60.63;97075.56;5000050;28;20205;-58
2022/12/28 11:13:45;;;;;;;0.87;0.87;;;;;;;11.44;61.71;97080.00;5000895;28;20220;-59
2022/12/28 11:16:13;;;;;;;0.93;0.70;;;;;;;11.13;63.02;97081.06;5000773;28;20224;-59
2022/12/28 11:18:40;;;;;;;1.17;1.17;;;;;;;11.08;64.92;97066.56;5000375;28;20216;-59
2022/12/28 11:21:10;;;;;;;1.73;1.20;;;;;;;10.86;66.89;97068.47;5001066;28;20208;-59
2022/12/28 11:23:37;;;;;;;1.20;0.70;;;;;;;10.60;65.74;97053.16;5000772;28;20193;-59
2022/12/28 11:26:10;;;;;;;1.20;0.97;;;;;;;10.46;67.99;97059.66;5000982;28;20213;-58
2022/12/28 11:28:36;;;;;;;1.77;1.00;;;;;;;10.39;68.93;97048.78;5001185;28;20205;-57
2022/12/28 11:31:04;;;;;;;1.43;0.70;;;;;;;10.28;70.07;97056.78;5000897;28;20197;-58
2022/12/28 11:33:38;;;;;;;2.17;1.90;;;;;;;10.33;70.08;97053.75;5000519;28;20235;-58
2022/12/28 11:36:05;;;;;;;1.87;1.40;;;;;;;10.12;71.13;97050.25;5000614;28;20498;-57
2022/12/28 11:38:37;;;;;;;2.53;2.33;;;;;;;10.25;70.22;97048.28;5000397;28;20216;-58
2022/12/28 11:41:05;;;;;;;1.40;1.30;;;;;;;10.35;69.65;97043.88;5000537;28;20200;-57
2022/12/28 11:43:53;;;;;;;1.80;1.60;;;;;;;10.31;69.15;97034.53;4997526;28;20251;-57
2022/12/28 11:46:40;;;;;;;1.50;1.40;;;;;;;10.41;70.95;97030.16;4984683;28;20633;-56
2022/12/28 11:49:25;;;;;;;1.77;1.67;;;;;;;10.42;70.53;97021.22;4994460;28;20209;-57
2022/12/28 11:52:26;;;;;;;1.87;1.77;;;;;;;10.53;69.00;97018.50;4994845;28;20205;-57
2022/12/28 11:54:56;;;;;;;2.43;1.50;;;;;;;10.46;68.70;97017.34;4994024;28;20205;-57
2022/12/28 11:57:35;;;;;;;2.93;1.70;;;;;;;10.44;70.33;97016.66;4994408;28;20197;-57
2022/12/28 12:00:38;;;;;;;1.87;1.67;;;;;;;10.54;69.20;97020.16;4994504;28;20205;-58
2022/12/28 12:03:05;;;;;;;2.97;2.43;;;;;;;10.55;70.03;97013.91;4994539;28;20545;-58
2022/12/28 12:05:51;;;;;;;2.57;2.00;;;;;;;10.50;69.85;97002.91;4993662;28;20637;-57
2022/12/28 12:08:43;;;;;;;2.00;1.90;;;;;;;10.50;69.97;97002.91;4994652;28;20205;-57
2022/12/28 12:11:32;;;;;;;2.30;2.10;;;;;;;10.43;70.82;96996.47;4993940;28;20205;-55